Aviation Digital Data Service (ADDS)

Output produced by TAFs form (0958 UTC 23 April 2017)
found at http://www.aviationweather.gov/adds/tafs/
 
METAR text: ZBTJ 230930Z 16006MPS CAVOK 16/04 Q1009 NOSIG
Conditions at: ZBTJ (TIANJIN/ZHANGGUI, CN) observed 0930 UTC 23 April 2017
Temperature: 16.0°C (61°F)
Dewpoint: 4.0°C (39°F) [RH = 45%]
Pressure (altimeter): 29.79 inches Hg (1009.0 mb)
Winds: from the SSE (160 degrees) at 14 MPH (12 knots; 6.2 m/s)
Visibility: 6 or more miles (10+ km)
Ceiling: ceiling and visibility are OK
Clouds: unknown
Weather: no significant weather observed at this time

Forecast for: ZBTJ (TIANJIN/ZHANGGUI, CN)
Text: TAF ZBTJ 230255Z 2306/2406 12006MPS 5000 HZ NSC TX24/2307Z TN12/2321Z
Forecast period: 0600 UTC 23 April 2017 to 0600 UTC 24 April 2017
Forecast type: FROM: standard forecast or significant change
Winds: from the ESE (120 degrees) at 14 MPH (12 knots; 6.2 m/s)
Visibility: 3 miles (5 km)
Clouds: not forecast
Weather: HZ  (haze)